Latest Coastal Weather Observations for East Sale

IDV60701

Issued at 11:51 am EST Wednesday 4 May 2016 (issued every 10 minutes, with the page automatically refreshed every 10 minutes)

About coastal observations | Map of coastal stations | Coastal observations for VIC | Marine services | Other Formats
Station Details ID: 085072 Name: EAST SALE AIRPORT Lat: -38.12 Lon: 147.13 Height: 4.6 m
Data from the previous 72 hours. | See also: Recent months at East Sale
Date/Time
EST
Temp

°C
Wind Pressure Rain
since 9am
mm
Weather Cloud Vis
km
Sea
Height
m
Swell
Dir
 
Speed
knots
Gust
knots
hPa Trend Height
m
Period
s
Dir
04/11:30am 15.9 W 15 20 1015.2 - 0.0 - Partly cloudy 10 - - - -
04/11:00am 16.0 W 15 18 1015.3 - 0.0 - - 10 - - - -
04/10:30am 15.3 WNW 13 19 1015.1 - 0.0 - Mostly clear 10 - - - -
04/10:00am 15.0 WNW 10 14 1015.1 - 0.0 - - 10 - - - -
04/09:30am 14.8 WNW 10 13 1015.2 - 0.0 - - 10 - - - -
04/09:00am 13.5 WNW 10 14 1015.0 R 0.0 - Mostly clear 10 - - - -
04/08:30am 12.6 WNW 8 11 1015.0 - 0.0 - Partly cloudy 10 - - - -
04/08:00am 12.2 WNW 11 14 1014.6 - 0.0 - - 10 - - - -
04/07:30am 11.7 W 12 14 1014.2 - 0.0 - - 10 - - - -
04/07:00am 10.6 W 11 15 1013.6 - 0.0 - Mostly clear 10 - - - -
04/06:30am 9.1 W 9 12 1013.1 - 0.0 - - 10 - - - -
04/06:00am 9.6 WNW 9 10 1012.3 R 0.0 - - 10 - - - -
04/05:30am 10.4 WNW 10 14 1011.8 - 0.0 - - 10 - - - -
04/05:00am 11.5 W 13 16 1011.6 - 0.0 - - 10 - - - -
04/04:30am 10.7 W 11 16 1011.0 - 0.0 - - 10 - - - -
04/04:00am 10.7 W 13 17 1010.1 - 0.0 - - 10 - - - -
04/03:30am 11.1 W 11 14 1009.9 - 0.0 - - 10 - - - -
04/03:00am 12.0 W 15 20 1009.4 R 0.0 - Mostly clear 10 - - - -
04/02:30am 12.4 W 14 19 1009.2 - 0.0 - - 10 - - - -
04/02:00am 12.7 W 17 23 1008.9 - 0.0 - - 10 - - - -
04/01:30am 13.2 WNW 17 21 1008.5 - 0.0 - - 10 - - - -
04/01:01am 13.2 WNW 20 30 1007.6 - 0.0 - Partly cloudy 10 - - - -
04/01:00am 13.3 WNW 21 30 1007.6 - 0.0 - Partly cloudy 10 - - - -
04/12:30am 13.5 WNW 19 26 1007.2 - 0.0 - Partly cloudy 10 - - - -
04/12:00am 13.6 WNW 20 27 1007.0 R 0.0 - Partly cloudy 10 - - - -
 
Date/Time
EST
Temp

°C
Wind Pressure Rain
since 9am
mm
Weather Cloud Vis
km
Sea
Height
m
Swell
Dir
 
Speed
knots
Gust
knots
hPa Trend Height
m
Period
s
Dir
03/11:30pm 13.0 WNW 16 21 1006.6 - 0.0 - Cloudy 10 - - - -
03/11:00pm 13.4 WNW 17 22 1006.9 - 0.0 - Cloudy 10 - - - -
03/10:30pm 13.4 W 18 24 1006.4 - 0.0 - Partly cloudy 10 - - - -
03/10:00pm 13.4 W 19 29 1005.8 - 0.0 - Partly cloudy 10 - - - -
03/09:55pm 13.4 W 19 29 1005.8 - 0.0 - Partly cloudy 10 - - - -
03/09:30pm 13.8 W 22 29 1005.8 - 0.0 - Partly cloudy 10 - - - -
03/09:00pm 13.9 W 24 34 1005.4 R 0.0 - Cloudy 10 - - - -
03/08:30pm 13.6 WSW 21 31 1005.2 - 0.0 - Cloudy 10 - - - -
03/08:04pm 13.6 W 21 31 1004.9 - 0.0 - Partly cloudy 10 - - - -
03/08:00pm 13.7 W 20 28 1004.9 - 0.0 - Partly cloudy 10 - - - -
03/07:40pm 13.6 W 20 32 1004.6 - 0.0 - Cloudy 10 - - - -
03/07:30pm 13.6 W 19 25 1004.4 - 0.0 - Cloudy 10 - - - -
03/07:01pm 13.9 W 20 30 1004.1 - 0.0 - Partly cloudy 10 - - - -
03/07:00pm 13.9 W 21 30 1004.1 - 0.0 - Partly cloudy 10 - - - -
03/06:39pm 14.4 WSW 21 31 1003.1 - 0.0 - Partly cloudy 10 - - - -
03/06:30pm 14.4 WSW 22 30 1002.8 - 0.0 - Partly cloudy 10 - - - -
03/06:20pm 14.5 WSW 24 35 1002.5 - 0.0 - Partly cloudy 10 - - - -
03/06:11pm 16.0 WNW 18 28 1001.9 - 0.0 - Cloudy 10 - - - -
03/06:00pm 18.6 NW 18 23 1001.0 R 0.0 - Cloudy 10 - - - -
03/05:30pm 18.9 NW 22 29 999.7 - 0.0 - Cloudy 10 - - - -
03/05:00pm 19.3 NW 25 32 998.4 - 0.0 - Partly cloudy 10 - - - -
03/04:31pm 20.2 NW 25 35 997.8 - 0.0 - Partly cloudy 10 - - - -
03/04:30pm 20.2 NW 26 35 997.7 - 0.0 - Partly cloudy 10 - - - -
03/04:13pm 20.3 NW 19 29 997.5 - 0.0 - Partly cloudy 10 - - - -
03/04:00pm 20.6 NW 21 29 997.3 - 0.0 - Partly cloudy 10 - - - -
03/03:30pm 20.4 NW 23 31 997.2 - 0.0 - - 10 - - - -
03/03:01pm 21.5 NW 28 38 996.7 - 0.0 - - 10 - - - -
03/03:00pm 21.5 NW 28 37 996.8 F 0.0 - - 10 - - - -
03/02:30pm 21.9 NW 26 37 996.3 - 0.0 - - 10 - - - -
03/02:00pm 22.0 NW 24 35 997.0 - 0.0 - - 10 - - - -
03/01:30pm 22.1 NW 25 38 997.2 - 0.0 - - 10 - - - -
03/01:00pm 22.1 NW 26 36 997.5 - 0.0 - - 10 - - - -
03/12:33pm 21.8 NNW 26 37 997.9 - 0.0 - - 10 - - - -
03/12:30pm 21.9 NNW 26 34 998.1 - 0.0 - - 10 - - - -
03/12:04pm 21.6 NW 26 36 998.9 - 0.0 - - 10 - - - -
03/12:00pm 21.6 NW 28 36 998.9 F 0.0 - - 10 - - - -
03/11:30am 21.0 NW 29 43 999.5 - 0.0 - - 10 - - - -
03/11:12am 20.9 NW 28 38 999.7 - 0.0 - - 10 - - - -
03/11:00am 20.8 NW 28 36 999.9 - 0.0 - - 10 - - - -
03/10:31am 20.6 NW 30 42 1000.5 - 0.0 - - 10 - - - -
03/10:30am 20.7 NW 29 38 1000.6 - 0.0 - - 10 - - - -
03/10:00am 20.1 NW 30 40 1000.4 - 0.0 - - 10 - - - -
03/09:50am 20.1 NW 32 46 1000.3 - 0.0 - - 10 - - - -
03/09:30am 19.8 NW 25 37 1001.1 - 0.0 - - 10 - - - -
03/09:00am 19.4 NW 25 35 1001.9 F 0.2 - - 10 - - - -
03/08:43am 18.9 NW 19 31 1002.1 - 0.2 - - 10 - - - -
03/08:30am 18.7 NW 16 22 1002.3 - 0.2 - - 10 - - - -
03/08:18am 18.3 NW 18 29 1002.3 - 0.2 - - 10 - - - -
03/08:00am 17.8 NW 17 23 1002.5 - 0.2 - - 10 - - - -
03/07:30am 16.9 NW 16 26 1002.4 - 0.2 - - 10 - - - -
03/07:00am 17.5 NW 20 27 1002.4 - 0.2 - - 10 - - - -
03/06:35am 16.9 N 10 25 1002.8 - 0.2 - - 10 - - - -
03/06:30am 16.8 N 8 15 1003.1 - 0.2 - - 10 - - - -
03/06:00am 13.4 NE 5 7 1003.4 F 0.2 - - 10 - - - -
03/05:30am 16.1 N 6 8 1004.0 - 0.2 - - 10 - - - -
03/05:00am 16.0 NW 14 18 1004.2 - 0.2 - - 10 - - - -
03/04:30am 16.5 NW 20 26 1004.4 - 0.2 - - 10 - - - -
03/04:00am 16.1 NNW 11 18 1004.3 - 0.2 - - 10 - - - -
03/03:30am 13.6 N 6 8 1004.8 - 0.2 - - 10 - - - -
03/03:00am 13.5 N 6 8 1005.2 F 0.2 - - 10 - - - -
03/02:30am 13.5 N 7 11 1005.8 - 0.2 - - 10 - - - -
03/02:00am 12.8 N 5 8 1006.2 - 0.2 - - 10 - - - -
03/01:30am 8.8 NE 5 6 1006.7 - 0.2 - - 10 - - - -
03/01:00am 11.1 NNE 5 7 1006.7 - 0.2 - - 10 - - - -
03/12:30am 8.6 NE 5 5 1007.0 - 0.2 - - 10 - - - -
03/12:00am 10.1 ENE 3 3 1007.5 F 0.2 - - 10 - - - -
 
Date/Time
EST
Temp

°C
Wind Pressure Rain
since 9am
mm
Weather Cloud Vis
km
Sea
Height
m
Swell
Dir
 
Speed
knots
Gust
knots
hPa Trend Height
m
Period
s
Dir
02/11:30pm 13.5 NNE 7 10 1007.5 - 0.2 - - 10 - - - -
02/11:00pm 13.8 NNW 11 19 1008.1 - 0.2 - - 10 - - - -
02/10:30pm 13.6 NNW 9 13 1008.5 - 0.2 - - 10 - - - -
02/10:00pm 11.9 N 7 9 1009.1 - 0.2 - - 10 - - - -
02/09:30pm 12.7 NNW 9 15 1009.2 - 0.2 - - 10 - - - -
02/09:00pm 12.8 NNW 11 14 1009.4 F 0.2 - - 10 - - - -
02/08:30pm 13.3 NNW 11 13 1009.5 - 0.2 - - 10 - - - -
02/08:00pm 13.2 NW 11 13 1009.3 - 0.2 - - 10 - - - -
02/07:30pm 13.6 NW 14 17 1009.4 - 0.2 - - 10 - - - -
02/07:00pm 13.6 NW 12 16 1009.9 - 0.2 - - 10 - - - -
02/06:30pm 13.4 NW 11 16 1009.9 - 0.2 - - 10 - - - -
02/06:00pm 13.1 NW 11 13 1009.8 F 0.2 - - 10 - - - -
02/05:30pm 13.2 NNW 10 13 1009.7 - 0.2 - - 10 - - - -
02/05:00pm 15.0 NW 11 15 1010.0 - 0.2 - - 10 - - - -
02/04:30pm 15.8 NW 17 23 1010.0 - 0.2 - - 10 - - - -
02/04:00pm 16.4 NW 16 22 1009.9 - 0.2 - - 10 - - - -
02/03:30pm 16.8 NW 19 27 1010.1 - 0.2 - - 10 - - - -
02/03:00pm 17.0 NW 17 22 1010.2 F 0.2 - - 10 - - - -
02/02:30pm 17.0 NW 19 28 1010.0 - 0.2 - - 10 - - - -
02/02:00pm 16.9 NW 16 25 1010.6 - 0.2 - Partly cloudy 10 - - - -
02/01:30pm 16.9 NW 17 22 1010.8 - 0.2 - Partly cloudy 10 - - - -
02/01:00pm 16.1 NW 20 27 1011.2 - 0.2 - Partly cloudy 10 - - - -
02/12:30pm 15.9 NW 20 27 1011.8 - 0.2 - Partly cloudy 10 - - - -
02/12:00pm 16.4 NW 20 25 1012.2 F 0.2 Recent precip. - 10 - - - -
02/11:30am 16.7 NW 18 24 1012.6 - 0.2 - - 10 - - - -
02/11:00am 16.0 NW 16 21 1012.7 - 0.0 - - 10 - - - -
02/10:30am 15.0 NNW 11 15 1013.2 - 0.0 - - 10 - - - -
02/10:00am 14.3 NNW 12 16 1013.6 - 0.0 - - 10 - - - -
02/09:30am 13.3 NNW 13 17 1013.9 - 0.0 - - 10 - - - -
02/09:00am 12.2 NNW 10 12 1014.0 F 2.0 - - 10 - - - -
02/08:30am 11.3 NNW 9 12 1014.1 - 2.0 - - 10 - - - -
02/08:00am 9.8 N 9 11 1014.0 - 2.0 - - 10 - - - -
02/07:30am 7.8 NNW 8 10 1013.8 - 2.0 - - 10 - - - -
02/07:00am 6.5 NW 3 4 1013.8 - 2.0 - - 10 - - - -
02/06:30am 7.2 NW 7 9 1013.7 - 2.0 - - 10 - - - -
02/06:00am 7.6 WNW 10 11 1013.6 F 2.0 - - 10 - - - -
02/05:30am 6.2 WNW 10 11 1013.6 - 2.0 - - 10 - - - -
02/05:00am 4.1 ESE 1 4 1013.6 - 2.0 - - 10 - - - -
02/04:30am 4.7 ESE 3 6 1013.5 - 2.0 - - 10 - - - -
02/04:00am 4.8 SSW 4 5 1013.3 - 2.0 - - 10 - - - -
02/03:30am 6.0 SE 4 4 1013.5 - 2.0 - - 10 - - - -
02/03:00am 7.9 NW 6 8 1013.5 F 2.0 - - 10 - - - -
02/02:30am 9.1 NW 8 10 1013.6 - 2.0 - - 10 - - - -
02/02:00am 8.8 NW 9 11 1013.8 - 2.0 - - 10 - - - -
02/01:30am 9.4 NW 9 11 1013.9 - 2.0 - - 10 - - - -
02/01:00am 10.3 WNW 9 12 1014.1 - 2.0 - - 10 - - - -
02/12:30am 10.6 NW 11 13 1014.2 - 2.0 - - 10 - - - -
02/12:00am 9.2 NW 12 14 1014.2 R 2.0 - - 10 - - - -
 
Date/Time
EST
Temp

°C
Wind Pressure Rain
since 9am
mm
Weather Cloud Vis
km
Sea
Height
m
Swell
Dir
 
Speed
knots
Gust
knots
hPa Trend Height
m
Period
s
Dir
01/11:30pm 9.2 WNW 8 9 1014.3 - 2.0 - - 10 - - - -
01/11:00pm 10.8 WNW 11 12 1014.4 - 2.0 - - 10 - - - -
01/10:30pm 11.0 NW 10 14 1014.8 - 2.0 - - 10 - - - -
01/10:00pm 11.9 WNW 12 18 1014.7 - 2.0 - - 10 - - - -
01/09:30pm 11.4 NW 10 15 1014.7 - 2.0 - - 10 - - - -
01/09:00pm 11.7 NW 13 17 1014.1 R 2.0 - - 10 - - - -
01/08:30pm 11.8 WNW 19 23 1013.3 - 2.0 - - 10 - - - -
01/08:00pm 12.1 WNW 21 26 1012.9 - 2.0 - - 10 - - - -
01/07:30pm 12.1 WNW 22 27 1012.6 - 2.0 - - 10 - - - -
01/07:00pm 11.6 WNW 20 26 1012.4 - 2.0 - - 10 - - - -
01/06:30pm 10.0 W 16 19 1012.3 - 2.0 - - 10 - - - -
01/06:00pm 9.9 WNW 15 19 1012.1 R 2.0 Recent precip. Partly cloudy 10 - - - -
01/05:56pm 9.9 WNW 16 19 1012.1 - 2.0 - Partly cloudy 10 - - - -
01/05:30pm 10.2 WSW 22 32 1011.9 - 2.0 - Partly cloudy 10 - - - -
01/05:00pm 10.1 WSW 25 38 1011.4 - 1.8 - Partly cloudy 9 - - - -
01/04:51pm 10.7 W 22 34 1011.1 - 1.8 - Partly cloudy 10 - - - -
01/04:30pm 13.4 W 25 33 1009.5 - 1.6 - - 10 - - - -
01/04:19pm 13.5 W 24 34 1009.0 - 1.6 - - 10 - - - -
01/04:00pm 13.4 WNW 22 30 1008.6 - 1.6 - - 10 - - - -
01/03:30pm 13.1 W 24 31 1008.9 - 1.6 - Partly cloudy 10 - - - -
01/03:01pm 12.5 W 27 37 1008.6 - 1.6 - Partly cloudy 10 - - - -
01/03:00pm 12.5 W 26 35 1008.6 R 1.6 Recent precip. Cloudy 10 - - - -
01/02:33pm 11.5 W 22 32 1008.1 - 1.2 - Partly cloudy 10 - - - -
01/02:30pm 11.5 W 24 33 1008.0 - 1.0 - Partly cloudy 9 - - - -
01/02:00pm 14.0 WSW 27 37 1006.9 - 0.4 - Partly cloudy 10 - - - -
01/01:39pm 15.8 W 24 34 1006.0 - 0.4 - Partly cloudy 10 - - - -
01/01:30pm 17.7 W 26 35 1005.6 - 0.4 - Partly cloudy 10 - - - -
01/01:25pm 16.5 W 25 35 1005.5 - 0.4 - Partly cloudy 10 - - - -
01/01:00pm 16.8 WNW 23 31 1005.5 - 0.4 - Partly cloudy 10 - - - -
01/12:30pm 17.8 NW 20 27 1005.2 - 0.4 - Partly cloudy 10 - - - -
01/12:17pm 16.4 NW 24 34 1005.2 - 0.4 - Partly cloudy 10 - - - -
01/12:00pm 17.7 NW 22 29 1005.3 R 0.4 - Mostly clear 10 - - - -

Other Formats:

Comma delimited format used in spreadsheet applications
http://www.bom.gov.au/fwo/IDV60701/IDV60701.94907.axf

JavaScript Object Notation format (JSON) in row-major order
http://www.bom.gov.au/fwo/IDV60701/IDV60701.94907.json